createdAt,value
2022-12-01T00:01:14.091Z,2.54
2022-12-01T00:03:25.570Z,2.50
2022-12-01T00:05:33.567Z,2.63
2022-12-01T00:07:41.721Z,2.63
2022-12-01T00:10:02.129Z,2.71
2022-12-01T00:12:11.185Z,2.45
2022-12-01T00:14:19.335Z,2.56
2022-12-01T00:16:28.004Z,2.60
2022-12-01T00:18:38.628Z,2.73
2022-12-01T00:20:51.177Z,2.86
2022-12-01T00:22:58.952Z,2.84
2022-12-01T00:25:07.732Z,2.78
2022-12-01T00:27:15.672Z,2.74
2022-12-01T00:29:23.626Z,2.67
2022-12-01T00:31:31.951Z,2.73
2022-12-01T00:33:43.159Z,2.72
2022-12-01T00:35:51.279Z,2.72
2022-12-01T00:38:00.185Z,2.81
2022-12-01T00:40:09.853Z,2.84
2022-12-01T00:42:20.944Z,2.76
2022-12-01T00:44:28.879Z,2.73
2022-12-01T00:46:37.691Z,2.83
2022-12-01T00:48:48.554Z,2.90
2022-12-01T00:50:58.512Z,2.95
2022-12-01T00:53:06.267Z,2.75
2022-12-01T00:55:14.336Z,2.56
2022-12-01T00:57:22.231Z,2.61
2022-12-01T00:59:30.414Z,2.60
2022-12-01T01:01:38.273Z,2.58
2022-12-01T01:03:48.696Z,2.61
2022-12-01T01:05:56.725Z,2.52
2022-12-01T01:08:04.715Z,2.40
2022-12-01T01:10:14.098Z,2.39
2022-12-01T01:12:22.200Z,2.33
2022-12-01T01:14:30.384Z,2.27
2022-12-01T01:16:39.765Z,2.24
2022-12-01T01:18:50.402Z,2.19
2022-12-01T01:20:59.768Z,2.24
2022-12-01T01:23:07.885Z,2.18
2022-12-01T01:25:15.839Z,2.15
2022-12-01T01:27:24.801Z,2.15
2022-12-01T01:29:32.720Z,2.08
2022-12-01T01:31:41.794Z,2.15
2022-12-01T01:33:52.856Z,2.11
2022-12-01T01:36:02.217Z,2.08
2022-12-01T01:38:09.960Z,2.09
2022-12-01T01:40:18.373Z,2.17
2022-12-01T01:42:26.320Z,2.25
2022-12-01T01:44:52.195Z,2.11
2022-12-01T01:47:00.157Z,2.08
2022-12-01T01:49:14.643Z,2.06
2022-12-01T01:51:27.444Z,2.05
2022-12-01T01:53:35.816Z,2.09
2022-12-01T01:55:43.972Z,2.20
2022-12-01T01:57:52.038Z,2.30
2022-12-01T02:00:05.525Z,2.46
2022-12-01T02:02:20.634Z,2.50
2022-12-01T02:04:32.564Z,2.34
2022-12-01T02:06:40.741Z,2.37
2022-12-01T02:08:48.820Z,2.45
2022-12-01T02:11:25.684Z,2.50
2022-12-01T02:13:44.960Z,2.40
2022-12-01T02:16:03.632Z,2.25
2022-12-01T02:18:25.518Z,2.13
2022-12-01T02:21:10.706Z,2.24
2022-12-01T02:24:03.122Z,2.17
2022-12-01T02:26:31.562Z,2.24
2022-12-01T02:28:59.553Z,2.30
2022-12-01T02:31:15.627Z,2.32
2022-12-01T02:33:29.788Z,2.19
2022-12-01T02:35:45.509Z,2.15
2022-12-01T02:38:04.486Z,1.99
2022-12-01T02:40:20.433Z,2.02
2022-12-01T02:42:53.884Z,1.93
2022-12-01T02:45:06.104Z,1.94
2022-12-01T02:47:18.968Z,1.96
2022-12-01T02:49:32.744Z,1.92
2022-12-01T02:51:44.789Z,1.89
2022-12-01T02:53:53.267Z,1.92
2022-12-01T02:56:02.031Z,1.96
2022-12-01T02:58:16.564Z,1.91
2022-12-01T03:00:24.545Z,1.95
2022-12-01T03:02:43.615Z,1.90
2022-12-01T03:05:05.744Z,1.80
2022-12-01T03:07:27.252Z,1.80
2022-12-01T03:09:49.891Z,1.89
2022-12-01T03:12:09.791Z,1.91
2022-12-01T03:14:26.523Z,1.91
2022-12-01T03:16:42.059Z,1.81
2022-12-01T03:18:58.294Z,1.78
2022-12-01T03:21:11.313Z,1.79
2022-12-01T03:23:24.012Z,1.69
2022-12-01T03:25:34.664Z,1.71
2022-12-01T03:28:19.363Z,1.68
2022-12-01T03:30:17.489Z,1.74
2022-12-01T03:32:31.751Z,1.82
2022-12-01T03:34:47.720Z,1.80
2022-12-01T03:36:59.681Z,1.73
2022-12-01T03:39:16.633Z,1.74
2022-12-01T03:41:31.196Z,1.73
2022-12-01T03:43:48.225Z,1.75
2022-12-01T03:46:02.727Z,1.73
2022-12-01T03:48:11.460Z,1.82
2022-12-01T03:50:22.168Z,1.72
2022-12-01T03:52:42.147Z,1.85
2022-12-01T03:54:58.835Z,1.66
2022-12-01T03:57:14.338Z,1.71
2022-12-01T03:59:26.008Z,1.73
2022-12-01T04:01:36.381Z,1.61
2022-12-01T04:03:45.770Z,1.58
2022-12-01T04:05:58.136Z,1.69
2022-12-01T04:08:06.329Z,1.70
2022-12-01T04:10:15.030Z,1.67
2022-12-01T04:12:29.604Z,1.66
2022-12-01T04:14:37.470Z,1.68
2022-12-01T04:16:45.531Z,1.68
2022-12-01T04:18:53.502Z,1.65
2022-12-01T04:21:04.727Z,1.82
2022-12-01T04:23:33.835Z,1.78
2022-12-01T04:25:41.948Z,1.85
2022-12-01T04:27:50.109Z,1.93
2022-12-01T04:30:02.384Z,1.88
2022-12-01T04:32:10.349Z,1.94
2022-12-01T04:34:18.621Z,1.95
2022-12-01T04:36:31.281Z,1.94
2022-12-01T04:38:40.171Z,1.85
2022-12-01T04:40:47.912Z,1.91
2022-12-01T04:42:56.073Z,1.91
2022-12-01T04:45:04.003Z,1.86
2022-12-01T04:47:12.331Z,1.88
2022-12-01T04:49:20.729Z,1.95
2022-12-01T04:51:31.502Z,2.07
2022-12-01T04:53:40.830Z,2.06
2022-12-01T04:55:48.674Z,2.03
2022-12-01T04:57:58.155Z,2.25
2022-12-01T05:00:13.112Z,2.13
2022-12-01T05:02:21.003Z,2.29
2022-12-01T05:04:28.796Z,2.42
2022-12-01T05:06:39.532Z,2.26
2022-12-01T05:08:47.663Z,2.25
2022-12-01T05:10:58.708Z,2.25
2022-12-01T05:13:07.557Z,2.33
2022-12-01T05:15:15.716Z,2.22
2022-12-01T05:17:23.656Z,2.29
2022-12-01T05:19:44.031Z,2.39
2022-12-01T05:21:55.903Z,2.14
2022-12-01T05:24:03.739Z,2.02
2022-12-01T05:26:12.542Z,2.00
2022-12-01T05:28:20.562Z,2.06
2022-12-01T05:30:29.039Z,2.12
2022-12-01T05:32:38.146Z,2.14
2022-12-01T05:34:46.028Z,2.19
2022-12-01T05:36:57.608Z,2.30
2022-12-01T05:39:05.741Z,2.26
2022-12-01T05:41:13.634Z,2.26
2022-12-01T05:43:27.154Z,2.29
2022-12-01T05:45:37.063Z,2.38
2022-12-01T05:47:44.992Z,2.15
2022-12-01T05:49:52.781Z,2.16
2022-12-01T05:52:03.717Z,2.04
2022-12-01T05:54:11.571Z,1.88
2022-12-01T05:56:19.511Z,1.96
2022-12-01T05:58:27.861Z,1.96
2022-12-01T06:00:39.619Z,2.05
2022-12-01T06:02:51.829Z,1.95
2022-12-01T06:04:59.866Z,2.03
2022-12-01T06:07:10.250Z,2.01
2022-12-01T06:09:19.729Z,2.21
2022-12-01T06:11:28.644Z,2.37
2022-12-01T06:13:36.379Z,2.23
2022-12-01T06:15:47.680Z,2.09
2022-12-01T06:17:55.418Z,1.98
2022-12-01T06:20:06.565Z,1.99
2022-12-01T06:22:19.817Z,2.02
2022-12-01T06:24:28.126Z,2.00
2022-12-01T06:26:36.592Z,2.33
2022-12-01T06:28:44.364Z,2.27
2022-12-01T06:30:54.498Z,2.12
2022-12-01T06:33:06.122Z,2.13
2022-12-01T06:35:16.439Z,2.15
2022-12-01T06:37:27.189Z,2.15
2022-12-01T06:39:35.187Z,2.15
2022-12-01T06:41:43.146Z,2.17
2022-12-01T06:43:51.341Z,1.89
2022-12-01T06:46:02.342Z,1.71
2022-12-01T06:48:12.776Z,1.76
2022-12-01T06:50:21.618Z,2.14
2022-12-01T06:52:32.449Z,2.22
2022-12-01T06:54:41.787Z,2.32
2022-12-01T06:56:50.078Z,2.29
2022-12-01T06:59:01.261Z,2.30
2022-12-01T07:01:13.309Z,2.26
2022-12-01T07:06:06.057Z,2.18
2022-12-01T07:08:20.174Z,2.40
2022-12-01T07:10:28.451Z,2.42
2022-12-01T07:12:37.029Z,2.32
2022-12-01T07:14:46.543Z,2.26
2022-12-01T07:16:54.458Z,2.18
2022-12-01T07:19:03.177Z,2.18
2022-12-01T07:21:16.010Z,2.05
2022-12-01T07:23:26.407Z,2.23
2022-12-01T07:25:35.132Z,2.34
2022-12-01T07:27:53.012Z,2.27
2022-12-01T07:30:00.879Z,2.43
2022-12-01T07:32:09.178Z,2.50
2022-12-01T07:34:17.089Z,2.46
2022-12-01T07:36:25.183Z,2.33
2022-12-01T07:38:37.577Z,2.26
2022-12-01T07:40:45.341Z,2.25
2022-12-01T07:42:53.925Z,2.23
2022-12-01T07:45:02.876Z,2.15
2022-12-01T07:47:10.616Z,2.20
2022-12-01T07:49:18.848Z,2.28
2022-12-01T07:51:28.432Z,2.41
2022-12-01T07:53:39.323Z,2.42
2022-12-01T07:55:51.215Z,2.51
2022-12-01T07:58:02.128Z,2.55
2022-12-01T08:00:11.636Z,2.50
2022-12-01T08:02:23.821Z,2.51
2022-12-01T08:04:32.230Z,2.39
2022-12-01T08:06:41.016Z,2.23
2022-12-01T08:08:52.347Z,2.14
2022-12-01T08:11:04.536Z,2.31
2022-12-01T08:13:17.112Z,2.27
2022-12-01T08:15:25.423Z,2.26
2022-12-01T08:17:33.237Z,2.37
2022-12-01T08:19:42.264Z,2.37
2022-12-01T08:21:51.320Z,2.49
2022-12-01T08:24:01.898Z,2.44
2022-12-01T08:26:12.619Z,2.45
2022-12-01T08:28:20.983Z,2.27
2022-12-01T08:30:29.317Z,2.27
2022-12-01T08:32:37.538Z,2.30
2022-12-01T08:34:49.326Z,2.32
2022-12-01T08:37:00.855Z,2.10
2022-12-01T08:39:11.993Z,2.12
2022-12-01T08:41:20.111Z,2.11
2022-12-01T08:43:56.111Z,2.05
2022-12-01T08:45:56.854Z,2.18
2022-12-01T08:48:04.691Z,2.10
2022-12-01T08:50:13.828Z,2.13
2022-12-01T08:52:21.775Z,2.19
2022-12-01T08:54:32.129Z,2.16
2022-12-01T08:56:43.106Z,1.95
2022-12-01T08:58:52.386Z,1.86
2022-12-01T09:01:08.047Z,2.04
2022-12-01T09:03:18.886Z,2.31
2022-12-01T09:05:28.177Z,2.10
2022-12-01T09:07:36.435Z,2.14
2022-12-01T09:09:48.739Z,2.25
2022-12-01T09:11:58.689Z,2.39
2022-12-01T09:14:06.886Z,2.51
2022-12-01T09:16:17.322Z,2.51
2022-12-01T09:18:26.022Z,2.30
2022-12-01T09:20:34.968Z,2.42
2022-12-01T09:22:42.785Z,2.65
2022-12-01T09:24:53.108Z,2.64
2022-12-01T09:27:03.431Z,2.69
2022-12-01T09:29:14.205Z,2.64
2022-12-01T09:31:23.519Z,2.55
2022-12-01T09:33:31.689Z,2.70
2022-12-01T09:35:39.858Z,2.68
2022-12-01T09:37:47.657Z,2.72
2022-12-01T09:40:00.198Z,2.91
2022-12-01T09:42:13.004Z,2.91
2022-12-01T09:44:33.097Z,3.07
2022-12-01T09:46:46.308Z,3.05
2022-12-01T09:48:57.376Z,2.92
2022-12-01T09:51:05.171Z,2.98
2022-12-01T09:53:22.933Z,3.06
2022-12-01T09:55:36.639Z,3.06
2022-12-01T09:57:48.140Z,3.19
2022-12-01T09:59:57.670Z,3.27
2022-12-01T10:02:14.369Z,3.10
2022-12-01T10:04:27.916Z,3.12
2022-12-01T10:06:41.563Z,3.16
2022-12-01T10:08:59.799Z,3.16
2022-12-01T10:11:20.543Z,3.34
2022-12-01T10:13:30.567Z,3.39
2022-12-01T10:15:50.033Z,3.61
2022-12-01T10:18:13.194Z,3.59
2022-12-01T10:20:28.858Z,3.69
2022-12-01T10:23:03.404Z,3.55
2022-12-01T10:25:23.706Z,3.58
2022-12-01T10:27:46.535Z,3.52
2022-12-01T10:30:06.419Z,3.65
2022-12-01T10:32:20.092Z,3.54
2022-12-01T10:34:30.656Z,3.61
2022-12-01T10:37:02.078Z,3.71
2022-12-01T10:39:16.858Z,3.51
2022-12-01T10:41:27.522Z,3.62
2022-12-01T10:43:44.454Z,3.50
2022-12-01T10:45:52.915Z,3.47
2022-12-01T10:48:19.978Z,3.57
2022-12-01T10:50:32.827Z,3.48
2022-12-01T10:52:42.510Z,3.52
2022-12-01T10:54:51.777Z,3.55
2022-12-01T10:57:00.407Z,3.53
2022-12-01T10:59:27.340Z,3.45
2022-12-01T11:01:37.443Z,3.47
2022-12-01T11:03:47.662Z,3.49
2022-12-01T11:05:58.434Z,3.44
2022-12-01T11:08:06.399Z,3.56
2022-12-01T11:10:26.260Z,3.58
2022-12-01T11:12:39.274Z,3.52
2022-12-01T11:14:54.011Z,3.51
2022-12-01T11:17:18.504Z,3.66
2022-12-01T11:19:33.308Z,3.78
2022-12-01T11:21:49.425Z,3.71
2022-12-01T11:23:59.368Z,3.54
2022-12-01T11:26:17.913Z,3.54
2022-12-01T11:28:26.450Z,3.57
2022-12-01T11:30:38.857Z,3.60
2022-12-01T11:32:55.740Z,3.70
2022-12-01T11:35:09.189Z,3.75
2022-12-01T11:37:21.723Z,3.69
2022-12-01T11:39:34.590Z,3.53
2022-12-01T11:41:43.676Z,3.65
2022-12-01T11:44:01.237Z,3.57
2022-12-01T11:46:12.987Z,3.73
2022-12-01T11:48:29.042Z,3.87
2022-12-01T11:50:40.211Z,3.71
2022-12-01T11:52:49.831Z,3.75
2022-12-01T11:55:04.405Z,3.81
2022-12-01T11:58:12.603Z,3.83
2022-12-01T11:59:46.758Z,3.90
2022-12-01T12:02:23.458Z,3.93
2022-12-01T12:04:50.067Z,3.94
2022-12-01T12:07:06.011Z,3.90
2022-12-01T12:09:43.403Z,4.01
2022-12-01T12:12:04.119Z,3.98
2022-12-01T12:14:40.105Z,4.06
2022-12-01T12:17:01.627Z,4.04
2022-12-01T12:19:33.690Z,4.10
2022-12-01T12:21:56.698Z,4.32
2022-12-01T12:24:28.598Z,4.21
2022-12-01T12:26:43.405Z,4.30
2022-12-01T12:29:13.612Z,4.33
2022-12-01T12:31:31.383Z,4.45
2022-12-01T12:34:14.254Z,4.43
2022-12-01T12:36:37.242Z,4.55
2022-12-01T12:38:57.613Z,4.47
2022-12-01T12:41:19.441Z,4.44
2022-12-01T12:43:38.008Z,4.31
2022-12-01T12:46:03.837Z,4.25
2022-12-01T12:48:26.210Z,4.26
2022-12-01T12:50:39.609Z,4.29
2022-12-01T12:52:54.531Z,4.29
2022-12-01T12:55:08.898Z,4.22
2022-12-01T12:57:26.024Z,4.23
2022-12-01T12:59:39.964Z,4.25
2022-12-01T13:02:03.158Z,4.12
2022-12-01T13:04:19.412Z,4.15
2022-12-01T13:06:32.562Z,4.29
2022-12-01T13:08:46.270Z,4.23
2022-12-01T13:11:02.240Z,4.23
2022-12-01T13:13:22.455Z,4.36
2022-12-01T13:15:32.742Z,4.48
2022-12-01T13:17:44.830Z,4.35
2022-12-01T13:19:52.787Z,4.34
2022-12-01T13:22:03.676Z,4.24
2022-12-01T13:24:22.767Z,4.05
2022-12-01T13:26:32.960Z,4.24
2022-12-01T13:28:45.873Z,4.33
2022-12-01T13:31:05.609Z,4.34
2022-12-01T13:33:20.668Z,4.21
2022-12-01T13:35:32.378Z,4.39
2022-12-01T13:37:42.139Z,4.33
2022-12-01T13:39:57.429Z,4.33
2022-12-01T13:42:09.372Z,4.35
2022-12-01T13:44:26.599Z,4.38
2022-12-01T13:46:52.641Z,4.23
2022-12-01T13:49:02.436Z,4.33
2022-12-01T13:51:10.416Z,4.30
2022-12-01T13:53:28.928Z,4.23
2022-12-01T13:55:59.118Z,4.20
2022-12-01T13:58:28.270Z,4.14
2022-12-01T14:00:37.614Z,4.06
2022-12-01T14:02:46.419Z,3.92
2022-12-01T14:04:54.244Z,3.93
2022-12-01T14:07:26.583Z,3.82
2022-12-01T14:09:38.688Z,3.69
2022-12-01T14:11:59.506Z,3.70
2022-12-01T14:14:26.151Z,3.84
2022-12-01T14:16:52.842Z,3.79
2022-12-01T14:19:02.068Z,3.69
2022-12-01T14:21:12.538Z,3.66
2022-12-01T14:23:29.034Z,3.75
2022-12-01T14:25:37.652Z,3.66
2022-12-01T14:27:48.463Z,3.77
2022-12-01T14:29:56.409Z,3.86
2022-12-01T14:32:28.475Z,3.79
2022-12-01T14:34:40.301Z,3.77
2022-12-01T14:36:51.971Z,3.74
2022-12-01T14:39:06.810Z,3.72
2022-12-01T14:41:28.641Z,3.78
2022-12-01T14:43:54.617Z,3.73
2022-12-01T14:46:10.548Z,3.71
2022-12-01T14:48:22.953Z,3.74
2022-12-01T14:50:43.504Z,3.56
2022-12-01T14:52:59.136Z,3.50
2022-12-01T14:55:11.179Z,3.60
2022-12-01T14:57:27.414Z,3.54
2022-12-01T14:59:37.948Z,3.58
2022-12-01T15:01:45.876Z,3.55
2022-12-01T15:03:58.010Z,3.50
2022-12-01T15:06:09.423Z,3.52
2022-12-01T15:10:55.277Z,3.48
2022-12-01T15:13:16.355Z,3.47
2022-12-01T15:15:29.169Z,3.46
2022-12-01T15:17:39.295Z,3.65
2022-12-01T15:19:47.197Z,3.59
2022-12-01T15:21:55.743Z,3.51
2022-12-01T15:24:07.148Z,3.51
2022-12-01T15:26:22.289Z,3.61
2022-12-01T15:28:35.095Z,3.54
2022-12-01T15:30:49.180Z,3.52
2022-12-01T15:32:57.421Z,3.61
2022-12-01T15:35:05.725Z,3.61
2022-12-01T15:37:16.735Z,3.60
2022-12-01T15:39:35.613Z,3.64
2022-12-01T15:41:46.885Z,3.51
2022-12-01T15:43:59.075Z,3.60
2022-12-01T15:46:19.079Z,3.57
2022-12-01T15:48:31.917Z,3.69
2022-12-01T15:50:46.431Z,3.54
2022-12-01T15:52:55.153Z,3.65
2022-12-01T15:55:08.452Z,3.60
2022-12-01T15:57:20.690Z,3.54
2022-12-01T15:59:34.791Z,3.58
2022-12-01T16:01:47.406Z,3.54
2022-12-01T16:03:58.988Z,3.60
2022-12-01T16:06:07.108Z,3.52
2022-12-01T16:08:20.320Z,3.61
2022-12-01T16:10:32.078Z,3.62
2022-12-01T16:12:40.215Z,3.44
2022-12-01T16:14:54.164Z,3.48
2022-12-01T16:17:05.136Z,3.44
2022-12-01T16:19:39.036Z,3.50
2022-12-01T16:21:49.698Z,3.52
2022-12-01T16:24:02.937Z,3.62
2022-12-01T16:26:11.742Z,3.64
2022-12-01T16:28:25.939Z,3.53
2022-12-01T16:30:41.289Z,3.49
2022-12-01T16:33:01.638Z,3.47
2022-12-01T16:35:23.770Z,3.51
2022-12-01T16:37:31.696Z,3.64
2022-12-01T16:39:39.898Z,3.60
2022-12-01T16:41:48.185Z,3.58
2022-12-01T16:44:20.647Z,3.54
2022-12-01T16:46:24.796Z,3.35
2022-12-01T16:48:37.716Z,3.35
2022-12-01T16:50:45.718Z,3.48
2022-12-01T16:52:53.912Z,3.43
2022-12-01T16:55:02.941Z,3.36
2022-12-01T16:57:14.741Z,3.41
2022-12-01T16:59:23.031Z,3.44
2022-12-01T17:01:32.499Z,3.54
2022-12-01T17:03:43.234Z,3.57
2022-12-01T17:05:52.546Z,3.60
2022-12-01T17:08:00.908Z,3.60
2022-12-01T17:10:10.018Z,3.63
2022-12-01T17:12:18.181Z,3.69
2022-12-01T17:14:26.388Z,3.73
2022-12-01T17:16:34.350Z,3.61
2022-12-01T17:18:47.125Z,3.77
2022-12-01T17:21:01.655Z,3.76
2022-12-01T17:23:11.714Z,3.75
2022-12-01T17:25:20.342Z,3.75
2022-12-01T17:27:28.671Z,3.78
2022-12-01T17:29:39.478Z,3.71
2022-12-01T17:31:49.567Z,3.66
2022-12-01T17:34:00.128Z,3.71
2022-12-01T17:36:13.656Z,3.60
2022-12-01T17:38:21.455Z,3.53
2022-12-01T17:40:30.195Z,3.57
2022-12-01T17:42:38.156Z,3.58
2022-12-01T17:44:46.082Z,3.49
2022-12-01T17:46:54.097Z,3.50
2022-12-01T17:49:08.638Z,3.60
2022-12-01T17:51:18.134Z,3.71
2022-12-01T17:53:28.491Z,3.53
2022-12-01T17:55:36.395Z,3.51
2022-12-01T17:57:44.571Z,3.48
2022-12-01T17:59:52.399Z,3.52
2022-12-01T18:02:02.986Z,3.67
2022-12-01T18:04:13.511Z,3.65
2022-12-01T18:06:22.341Z,3.72
2022-12-01T18:08:32.502Z,3.64
2022-12-01T18:10:41.326Z,3.77
2022-12-01T18:12:49.235Z,3.85
2022-12-01T18:14:57.631Z,3.86
2022-12-01T18:17:06.227Z,3.92
2022-12-01T18:19:16.810Z,3.92
2022-12-01T18:21:27.238Z,3.88
2022-12-01T18:23:35.888Z,3.91
2022-12-01T18:25:44.921Z,3.84
2022-12-01T18:27:58.930Z,3.84
2022-12-01T18:30:07.977Z,3.79
2022-12-01T18:32:16.816Z,3.79
2022-12-01T18:34:29.547Z,3.79
2022-12-01T18:36:40.497Z,3.82
2022-12-01T18:38:48.781Z,3.81
2022-12-01T18:41:00.141Z,3.83
2022-12-01T18:43:08.485Z,3.72
2022-12-01T18:45:20.742Z,3.66
2022-12-01T18:47:29.261Z,3.63
2022-12-01T18:49:39.720Z,3.76
2022-12-01T18:51:47.620Z,3.84
2022-12-01T18:53:57.221Z,3.75
2022-12-01T18:56:06.509Z,3.80
2022-12-01T18:58:14.356Z,3.68
2022-12-01T19:00:23.516Z,3.60
2022-12-01T19:02:32.388Z,3.62
2022-12-01T19:04:42.890Z,3.58
2022-12-01T19:06:50.917Z,3.46
2022-12-01T19:09:03.371Z,3.48
2022-12-01T19:11:11.235Z,3.40
2022-12-01T19:13:21.558Z,3.44
2022-12-01T19:15:33.029Z,3.34
2022-12-01T19:17:41.165Z,3.37
2022-12-01T19:19:55.567Z,3.40
2022-12-01T19:22:06.073Z,3.42
2022-12-01T19:24:14.354Z,3.34
2022-12-01T19:26:25.645Z,3.34
2022-12-01T19:28:37.619Z,3.41
2022-12-01T19:30:51.928Z,3.28
2022-12-01T19:33:06.249Z,3.41
2022-12-01T19:35:18.347Z,3.37
2022-12-01T19:37:27.753Z,3.48
2022-12-01T19:39:35.930Z,3.46
2022-12-01T19:41:44.885Z,3.36
2022-12-01T19:43:52.908Z,3.29
2022-12-01T19:46:01.060Z,3.29
2022-12-01T19:48:09.625Z,3.28
2022-12-01T19:50:20.435Z,3.23
2022-12-01T19:52:28.834Z,3.28
2022-12-01T19:54:37.776Z,3.27
2022-12-01T19:56:46.276Z,3.18
2022-12-01T19:58:54.273Z,3.23
2022-12-01T20:01:07.804Z,3.30
2022-12-01T20:03:15.701Z,3.40
2022-12-01T20:05:27.360Z,3.33
2022-12-01T20:07:36.520Z,3.32
2022-12-01T20:09:49.733Z,3.27
2022-12-01T20:11:58.151Z,3.38
2022-12-01T20:14:07.855Z,3.38
2022-12-01T20:16:17.552Z,3.41
2022-12-01T20:18:26.042Z,3.39
2022-12-01T20:20:37.053Z,3.33
2022-12-01T20:22:45.116Z,3.45
2022-12-01T20:24:53.148Z,3.43
2022-12-01T20:27:01.445Z,3.34
2022-12-01T20:29:13.022Z,3.43
2022-12-01T20:31:23.168Z,3.40
2022-12-01T20:33:32.024Z,3.44
2022-12-01T20:35:42.896Z,3.55
2022-12-01T20:37:50.866Z,3.56
2022-12-01T20:39:58.892Z,3.67
2022-12-01T20:42:07.558Z,3.52
2022-12-01T20:44:19.114Z,3.65
2022-12-01T20:46:28.309Z,3.53
2022-12-01T20:48:36.853Z,3.53
2022-12-01T20:50:47.649Z,3.52
2022-12-01T20:52:55.796Z,3.54
2022-12-01T20:55:05.027Z,3.60
2022-12-01T20:57:12.927Z,3.56
2022-12-01T20:59:20.854Z,3.49
2022-12-01T21:01:29.307Z,3.49
2022-12-01T21:03:37.545Z,3.60
2022-12-01T21:05:48.859Z,3.51
2022-12-01T21:07:57.504Z,3.51
2022-12-01T21:10:06.364Z,3.48
2022-12-01T21:12:29.257Z,3.57
2022-12-01T21:14:41.510Z,3.48
2022-12-01T21:16:53.464Z,3.56
2022-12-01T21:19:06.526Z,3.59
2022-12-01T21:21:25.189Z,3.54
2022-12-01T21:23:33.385Z,3.47
2022-12-01T21:25:42.640Z,3.39
2022-12-01T21:27:51.376Z,3.48
2022-12-01T21:29:59.734Z,3.54
2022-12-01T21:32:16.449Z,3.46
2022-12-01T21:34:27.720Z,3.51
2022-12-01T21:36:38.387Z,3.37
2022-12-01T21:38:48.382Z,3.42
2022-12-01T21:40:57.411Z,3.44
2022-12-01T21:43:20.252Z,3.39
2022-12-01T21:45:31.321Z,3.52
2022-12-01T21:47:39.425Z,3.64
2022-12-01T21:49:48.444Z,3.57
2022-12-01T21:51:59.014Z,3.60
2022-12-01T21:54:13.258Z,3.60
2022-12-01T21:56:25.818Z,3.74
2022-12-01T21:58:37.127Z,3.60
2022-12-01T22:00:45.630Z,3.58
2022-12-01T22:02:55.729Z,3.44
2022-12-01T22:05:04.017Z,3.48
2022-12-01T22:07:18.524Z,3.42
2022-12-01T22:09:29.860Z,3.40
2022-12-01T22:11:38.156Z,3.51
2022-12-01T22:13:48.413Z,3.42
2022-12-01T22:15:57.547Z,3.38
2022-12-01T22:18:13.993Z,3.35
2022-12-01T22:20:25.897Z,3.44
2022-12-01T22:22:39.520Z,3.44
2022-12-01T22:24:50.386Z,3.53
2022-12-01T22:27:12.514Z,3.62
2022-12-01T22:29:29.358Z,3.54
2022-12-01T22:31:37.261Z,3.65
2022-12-01T22:33:45.638Z,3.65
2022-12-01T22:35:55.199Z,3.69
2022-12-01T22:38:22.330Z,3.68
2022-12-01T22:40:40.896Z,3.60
2022-12-01T22:42:48.817Z,3.68
2022-12-01T22:44:57.902Z,3.75
2022-12-01T22:47:06.502Z,3.60
2022-12-01T22:49:20.844Z,3.49
2022-12-01T22:51:42.465Z,3.49
2022-12-01T22:53:54.937Z,3.48
2022-12-01T22:56:04.237Z,3.57
2022-12-01T22:58:25.247Z,3.59
2022-12-01T23:00:34.413Z,3.55
2022-12-01T23:02:43.057Z,3.56
2022-12-01T23:04:53.073Z,3.53
2022-12-01T23:07:12.164Z,3.57
2022-12-01T23:09:23.463Z,3.63
2022-12-01T23:11:31.955Z,3.49
2022-12-01T23:13:41.080Z,3.46
2022-12-01T23:15:50.578Z,3.48
2022-12-01T23:17:58.610Z,3.52
2022-12-01T23:20:27.662Z,3.55
2022-12-01T23:22:35.763Z,3.43
2022-12-01T23:24:46.904Z,3.40
2022-12-01T23:26:56.012Z,3.42
2022-12-01T23:29:04.564Z,3.35
2022-12-01T23:31:13.326Z,3.25
2022-12-01T23:33:23.842Z,3.30
2022-12-01T23:35:32.315Z,3.34
2022-12-01T23:37:42.367Z,3.24
2022-12-01T23:39:54.003Z,3.26
2022-12-01T23:42:03.488Z,3.22
2022-12-01T23:44:21.232Z,3.31
2022-12-01T23:46:31.041Z,3.40
2022-12-01T23:48:42.554Z,3.35
2022-12-01T23:50:53.585Z,3.33
2022-12-01T23:53:02.034Z,3.38
2022-12-01T23:55:21.807Z,3.40
2022-12-01T23:57:33.487Z,3.39
2022-12-01T23:59:41.633Z,3.34
